Terminal Aerodrome Forecast
Issued by NWS Cleveland, OH

Home | Current Version | Previous Version | Text Only | Print | Product List | Glossary On
Versions: 1 2 3 4 5 6 7 8 9 10 11 12 13 14 15 16 17 18 19
000
FTUS41 KCLE 221858 AAA
TAFERI
TAF AMD
KERI 221858Z 2219/2318 32010KT P6SM OVC040
      TEMPO 2220/2224 -SN BKN025
     FM230300 23006KT P6SM BKN040
     FM231400 20008KT P6SM BKN035 OVC100=

USA.gov is the U.S. government's official web portal to all federal, state and local government web resources and services.